sensor_id;sensor_type;location;lat;lon;timestamp;P1;durP1;ratioP1;P2;durP2;ratioP2
46731;SDS011;32477;51.474;5.696;2023-06-26T00:00:19;16.55;;;13.18;;
46731;SDS011;32477;51.474;5.696;2023-06-26T00:02:45;14.50;;;11.80;;
46731;SDS011;32477;51.474;5.696;2023-06-26T00:05:11;16.63;;;12.10;;
46731;SDS011;32477;51.474;5.696;2023-06-26T00:07:36;16.15;;;11.07;;
46731;SDS011;32477;51.474;5.696;2023-06-26T00:10:03;17.95;;;11.73;;
46731;SDS011;32477;51.474;5.696;2023-06-26T00:12:29;14.65;;;11.02;;
46731;SDS011;32477;51.474;5.696;2023-06-26T00:14:55;13.90;;;11.20;;
46731;SDS011;32477;51.474;5.696;2023-06-26T00:17:21;14.82;;;11.45;;
46731;SDS011;32477;51.474;5.696;2023-06-26T00:19:47;16.17;;;11.63;;
46731;SDS011;32477;51.474;5.696;2023-06-26T00:22:13;16.50;;;12.02;;
46731;SDS011;32477;51.474;5.696;2023-06-26T00:24:39;17.23;;;11.73;;
46731;SDS011;32477;51.474;5.696;2023-06-26T00:27:05;17.00;;;10.48;;
46731;SDS011;32477;51.474;5.696;2023-06-26T00:29:31;15.85;;;10.80;;
46731;SDS011;32477;51.474;5.696;2023-06-26T00:31:56;13.40;;;9.93;;
46731;SDS011;32477;51.474;5.696;2023-06-26T00:34:24;13.57;;;9.48;;
46731;SDS011;32477;51.474;5.696;2023-06-26T00:36:49;14.13;;;9.23;;
46731;SDS011;32477;51.474;5.696;2023-06-26T00:39:15;13.10;;;9.50;;
46731;SDS011;32477;51.474;5.696;2023-06-26T00:41:41;13.65;;;11.10;;
46731;SDS011;32477;51.474;5.696;2023-06-26T00:44:07;16.05;;;9.63;;
46731;SDS011;32477;51.474;5.696;2023-06-26T00:46:32;16.92;;;10.80;;
46731;SDS011;32477;51.474;5.696;2023-06-26T00:48:59;13.27;;;10.02;;
46731;SDS011;32477;51.474;5.696;2023-06-26T00:51:27;18.20;;;10.07;;
46731;SDS011;32477;51.474;5.696;2023-06-26T00:53:54;11.60;;;9.38;;
46731;SDS011;32477;51.474;5.696;2023-06-26T00:56:20;18.52;;;10.25;;
46731;SDS011;32477;51.474;5.696;2023-06-26T00:58:46;13.35;;;10.05;;
46731;SDS011;32477;51.474;5.696;2023-06-26T01:01:12;12.63;;;9.80;;
46731;SDS011;32477;51.474;5.696;2023-06-26T01:03:45;16.20;;;9.50;;
46731;SDS011;32477;51.474;5.696;2023-06-26T01:06:16;12.57;;;9.68;;
46731;SDS011;32477;51.474;5.696;2023-06-26T01:08:43;12.10;;;9.82;;
46731;SDS011;32477;51.474;5.696;2023-06-26T01:11:10;18.45;;;10.10;;
46731;SDS011;32477;51.474;5.696;2023-06-26T01:13:36;20.02;;;10.50;;
46731;SDS011;32477;51.474;5.696;2023-06-26T01:16:02;13.18;;;9.48;;
46731;SDS011;32477;51.474;5.696;2023-06-26T01:18:29;24.48;;;10.88;;
46731;SDS011;32477;51.474;5.696;2023-06-26T01:20:57;14.43;;;9.25;;
46731;SDS011;32477;51.474;5.696;2023-06-26T01:28:38;18.08;;;9.52;;
46731;SDS011;32477;51.474;5.696;2023-06-26T01:31:06;18.80;;;7.83;;
46731;SDS011;32477;51.474;5.696;2023-06-26T01:33:33;11.07;;;7.97;;
46731;SDS011;32477;51.474;5.696;2023-06-26T01:36:00;10.95;;;7.05;;
46731;SDS011;32477;51.474;5.696;2023-06-26T01:38:26;9.05;;;6.38;;
46731;SDS011;32477;51.474;5.696;2023-06-26T01:40:52;10.07;;;6.05;;
46731;SDS011;32477;51.474;5.696;2023-06-26T01:43:27;8.55;;;5.57;;
46731;SDS011;32477;51.474;5.696;2023-06-26T01:45:55;7.47;;;5.70;;
46731;SDS011;32477;51.474;5.696;2023-06-26T01:48:38;8.65;;;6.07;;
46731;SDS011;32477;51.474;5.696;2023-06-26T01:51:11;10.52;;;5.65;;
46731;SDS011;32477;51.474;5.696;2023-06-26T01:53:41;8.63;;;5.93;;
46731;SDS011;32477;51.474;5.696;2023-06-26T01:56:13;8.73;;;6.18;;
46731;SDS011;32477;51.474;5.696;2023-06-26T01:58:43;8.35;;;5.78;;
46731;SDS011;32477;51.474;5.696;2023-06-26T02:01:11;8.57;;;6.18;;
46731;SDS011;32477;51.474;5.696;2023-06-26T02:03:37;11.02;;;6.38;;
46731;SDS011;32477;51.474;5.696;2023-06-26T02:06:03;9.90;;;6.55;;
46731;SDS011;32477;51.474;5.696;2023-06-26T02:08:28;7.80;;;6.22;;
46731;SDS011;32477;51.474;5.696;2023-06-26T02:10:54;10.05;;;6.07;;
46731;SDS011;32477;51.474;5.696;2023-06-26T02:13:20;12.52;;;6.50;;
46731;SDS011;32477;51.474;5.696;2023-06-26T02:15:45;11.27;;;6.28;;
46731;SDS011;32477;51.474;5.696;2023-06-26T02:18:11;10.20;;;6.40;;
46731;SDS011;32477;51.474;5.696;2023-06-26T02:20:37;9.68;;;5.95;;
46731;SDS011;32477;51.474;5.696;2023-06-26T02:23:02;10.80;;;5.75;;
46731;SDS011;32477;51.474;5.696;2023-06-26T02:25:28;11.50;;;5.65;;
46731;SDS011;32477;51.474;5.696;2023-06-26T02:27:53;9.13;;;5.30;;
46731;SDS011;32477;51.474;5.696;2023-06-26T02:30:20;8.98;;;5.80;;
46731;SDS011;32477;51.474;5.696;2023-06-26T02:32:45;10.60;;;6.15;;
46731;SDS011;32477;51.474;5.696;2023-06-26T02:35:11;9.35;;;5.82;;
46731;SDS011;32477;51.474;5.696;2023-06-26T02:37:37;9.85;;;5.25;;
46731;SDS011;32477;51.474;5.696;2023-06-26T02:40:02;11.00;;;5.35;;
46731;SDS011;32477;51.474;5.696;2023-06-26T02:42:29;10.68;;;6.05;;
46731;SDS011;32477;51.474;5.696;2023-06-26T02:44:56;8.15;;;4.70;;
46731;SDS011;32477;51.474;5.696;2023-06-26T02:47:22;9.35;;;5.45;;
46731;SDS011;32477;51.474;5.696;2023-06-26T02:49:47;9.35;;;4.88;;
46731;SDS011;32477;51.474;5.696;2023-06-26T02:52:13;15.05;;;4.88;;
46731;SDS011;32477;51.474;5.696;2023-06-26T02:54:38;10.70;;;4.70;;
46731;SDS011;32477;51.474;5.696;2023-06-26T02:57:04;11.35;;;4.95;;
46731;SDS011;32477;51.474;5.696;2023-06-26T02:59:30;11.20;;;4.85;;
46731;SDS011;32477;51.474;5.696;2023-06-26T03:01:55;11.07;;;4.50;;
46731;SDS011;32477;51.474;5.696;2023-06-26T03:04:21;9.82;;;5.18;;
46731;SDS011;32477;51.474;5.696;2023-06-26T03:06:47;7.13;;;4.22;;
46731;SDS011;32477;51.474;5.696;2023-06-26T03:09:13;9.60;;;5.13;;
46731;SDS011;32477;51.474;5.696;2023-06-26T03:11:38;11.73;;;4.10;;
46731;SDS011;32477;51.474;5.696;2023-06-26T03:14:04;10.55;;;4.60;;
46731;SDS011;32477;51.474;5.696;2023-06-26T03:16:29;10.77;;;4.97;;
46731;SDS011;32477;51.474;5.696;2023-06-26T03:18:55;13.50;;;4.72;;
46731;SDS011;32477;51.474;5.696;2023-06-26T03:21:21;7.40;;;4.82;;
46731;SDS011;32477;51.474;5.696;2023-06-26T03:23:46;12.13;;;4.63;;
46731;SDS011;32477;51.474;5.696;2023-06-26T03:26:12;11.20;;;4.53;;
46731;SDS011;32477;51.474;5.696;2023-06-26T03:28:39;10.68;;;4.28;;
46731;SDS011;32477;51.474;5.696;2023-06-26T03:31:05;7.95;;;4.43;;
46731;SDS011;32477;51.474;5.696;2023-06-26T03:33:31;10.43;;;5.47;;
46731;SDS011;32477;51.474;5.696;2023-06-26T03:35:57;9.80;;;4.28;;
46731;SDS011;32477;51.474;5.696;2023-06-26T03:38:24;11.70;;;4.68;;
46731;SDS011;32477;51.474;5.696;2023-06-26T03:40:50;7.68;;;4.03;;
46731;SDS011;32477;51.474;5.696;2023-06-26T03:43:17;10.15;;;4.18;;
46731;SDS011;32477;51.474;5.696;2023-06-26T03:45:42;13.73;;;6.18;;
46731;SDS011;32477;51.474;5.696;2023-06-26T03:48:08;8.07;;;4.45;;
46731;SDS011;32477;51.474;5.696;2023-06-26T03:50:34;10.13;;;4.93;;
46731;SDS011;32477;51.474;5.696;2023-06-26T03:52:59;17.05;;;4.78;;
46731;SDS011;32477;51.474;5.696;2023-06-26T03:55:25;10.70;;;4.60;;
46731;SDS011;32477;51.474;5.696;2023-06-26T03:57:51;12.10;;;4.63;;
46731;SDS011;32477;51.474;5.696;2023-06-26T04:00:16;11.27;;;4.40;;
46731;SDS011;32477;51.474;5.696;2023-06-26T04:02:42;10.05;;;4.20;;
46731;SDS011;32477;51.474;5.696;2023-06-26T04:05:08;11.07;;;5.07;;
46731;SDS011;32477;51.474;5.696;2023-06-26T04:07:34;44.60;;;7.32;;
46731;SDS011;32477;51.474;5.696;2023-06-26T04:10:00;10.38;;;4.63;;
46731;SDS011;32477;51.474;5.696;2023-06-26T04:12:26;14.90;;;4.75;;
46731;SDS011;32477;51.474;5.696;2023-06-26T04:14:52;12.15;;;4.78;;
46731;SDS011;32477;51.474;5.696;2023-06-26T04:17:18;12.70;;;5.20;;
46731;SDS011;32477;51.474;5.696;2023-06-26T04:19:43;10.25;;;4.68;;
46731;SDS011;32477;51.474;5.696;2023-06-26T04:22:09;12.52;;;4.63;;
46731;SDS011;32477;51.474;5.696;2023-06-26T04:24:35;11.60;;;5.35;;
46731;SDS011;32477;51.474;5.696;2023-06-26T04:27:00;11.23;;;4.90;;
46731;SDS011;32477;51.474;5.696;2023-06-26T04:29:26;15.50;;;4.80;;
46731;SDS011;32477;51.474;5.696;2023-06-26T04:31:52;14.07;;;5.97;;
46731;SDS011;32477;51.474;5.696;2023-06-26T04:34:26;18.75;;;5.60;;
46731;SDS011;32477;51.474;5.696;2023-06-26T04:36:52;21.50;;;6.15;;
46731;SDS011;32477;51.474;5.696;2023-06-26T04:39:18;12.90;;;5.28;;
46731;SDS011;32477;51.474;5.696;2023-06-26T04:41:44;13.55;;;5.68;;
46731;SDS011;32477;51.474;5.696;2023-06-26T04:44:10;20.65;;;5.68;;
46731;SDS011;32477;51.474;5.696;2023-06-26T04:46:39;15.10;;;5.82;;
46731;SDS011;32477;51.474;5.696;2023-06-26T04:49:06;19.60;;;5.63;;
46731;SDS011;32477;51.474;5.696;2023-06-26T04:51:32;11.88;;;4.63;;
46731;SDS011;32477;51.474;5.696;2023-06-26T04:53:58;21.08;;;6.15;;
46731;SDS011;32477;51.474;5.696;2023-06-26T04:56:24;12.63;;;5.65;;
46731;SDS011;32477;51.474;5.696;2023-06-26T04:58:49;15.52;;;5.68;;
46731;SDS011;32477;51.474;5.696;2023-06-26T05:01:15;19.73;;;5.60;;
46731;SDS011;32477;51.474;5.696;2023-06-26T05:03:40;16.38;;;5.35;;
46731;SDS011;32477;51.474;5.696;2023-06-26T05:06:06;23.27;;;5.05;;
46731;SDS011;32477;51.474;5.696;2023-06-26T05:08:32;20.20;;;5.72;;
46731;SDS011;32477;51.474;5.696;2023-06-26T05:10:57;21.05;;;5.75;;
46731;SDS011;32477;51.474;5.696;2023-06-26T05:13:26;15.75;;;4.97;;
46731;SDS011;32477;51.474;5.696;2023-06-26T05:15:52;20.88;;;5.57;;
46731;SDS011;32477;51.474;5.696;2023-06-26T05:18:18;25.05;;;6.65;;
46731;SDS011;32477;51.474;5.696;2023-06-26T05:20:44;20.05;;;5.30;;
46731;SDS011;32477;51.474;5.696;2023-06-26T05:23:13;11.85;;;4.43;;
46731;SDS011;32477;51.474;5.696;2023-06-26T05:25:40;18.40;;;5.38;;
46731;SDS011;32477;51.474;5.696;2023-06-26T05:28:06;11.57;;;4.70;;
46731;SDS011;32477;51.474;5.696;2023-06-26T05:30:35;20.27;;;4.90;;
46731;SDS011;32477;51.474;5.696;2023-06-26T05:33:01;17.20;;;5.20;;
46731;SDS011;32477;51.474;5.696;2023-06-26T05:35:30;18.67;;;5.78;;
46731;SDS011;32477;51.474;5.696;2023-06-26T05:37:57;16.58;;;4.72;;
46731;SDS011;32477;51.474;5.696;2023-06-26T05:40:23;16.38;;;6.50;;
46731;SDS011;32477;51.474;5.696;2023-06-26T05:42:49;16.50;;;4.32;;
46731;SDS011;32477;51.474;5.696;2023-06-26T05:45:15;14.55;;;5.20;;
46731;SDS011;32477;51.474;5.696;2023-06-26T05:47:41;21.13;;;5.10;;
46731;SDS011;32477;51.474;5.696;2023-06-26T05:50:08;10.93;;;4.40;;
46731;SDS011;32477;51.474;5.696;2023-06-26T05:52:34;18.02;;;4.90;;
46731;SDS011;32477;51.474;5.696;2023-06-26T05:55:01;17.55;;;4.85;;
46731;SDS011;32477;51.474;5.696;2023-06-26T05:57:28;16.00;;;6.50;;
46731;SDS011;32477;51.474;5.696;2023-06-26T05:59:55;17.77;;;5.32;;
46731;SDS011;32477;51.474;5.696;2023-06-26T06:02:21;16.20;;;5.00;;
46731;SDS011;32477;51.474;5.696;2023-06-26T06:04:47;22.10;;;5.53;;
46731;SDS011;32477;51.474;5.696;2023-06-26T06:07:13;21.75;;;4.53;;
46731;SDS011;32477;51.474;5.696;2023-06-26T06:09:39;21.52;;;5.13;;
46731;SDS011;32477;51.474;5.696;2023-06-26T06:12:07;20.60;;;4.50;;
46731;SDS011;32477;51.474;5.696;2023-06-26T06:14:33;15.23;;;4.60;;
46731;SDS011;32477;51.474;5.696;2023-06-26T06:16:59;15.50;;;4.75;;
46731;SDS011;32477;51.474;5.696;2023-06-26T06:19:25;22.10;;;4.72;;
46731;SDS011;32477;51.474;5.696;2023-06-26T06:21:51;17.90;;;4.30;;
46731;SDS011;32477;51.474;5.696;2023-06-26T06:24:17;17.10;;;4.35;;
46731;SDS011;32477;51.474;5.696;2023-06-26T06:26:42;13.70;;;4.50;;
46731;SDS011;32477;51.474;5.696;2023-06-26T06:29:08;12.05;;;4.03;;
46731;SDS011;32477;51.474;5.696;2023-06-26T06:31:34;11.57;;;4.03;;
46731;SDS011;32477;51.474;5.696;2023-06-26T06:34:00;14.00;;;4.00;;
46731;SDS011;32477;51.474;5.696;2023-06-26T06:36:25;13.25;;;4.20;;
46731;SDS011;32477;51.474;5.696;2023-06-26T06:38:51;14.57;;;4.10;;
46731;SDS011;32477;51.474;5.696;2023-06-26T06:41:16;9.45;;;4.03;;
46731;SDS011;32477;51.474;5.696;2023-06-26T06:43:42;13.63;;;4.20;;
46731;SDS011;32477;51.474;5.696;2023-06-26T06:46:08;11.07;;;3.67;;
46731;SDS011;32477;51.474;5.696;2023-06-26T06:48:34;16.90;;;4.03;;
46731;SDS011;32477;51.474;5.696;2023-06-26T06:51:00;13.55;;;3.40;;
46731;SDS011;32477;51.474;5.696;2023-06-26T06:53:25;17.40;;;3.90;;
46731;SDS011;32477;51.474;5.696;2023-06-26T06:55:51;16.38;;;5.28;;
46731;SDS011;32477;51.474;5.696;2023-06-26T06:58:17;13.20;;;3.70;;
46731;SDS011;32477;51.474;5.696;2023-06-26T07:00:44;11.73;;;3.05;;
46731;SDS011;32477;51.474;5.696;2023-06-26T07:03:10;6.30;;;3.13;;
46731;SDS011;32477;51.474;5.696;2023-06-26T07:05:36;9.30;;;3.33;;
46731;SDS011;32477;51.474;5.696;2023-06-26T07:08:02;10.63;;;3.42;;
46731;SDS011;32477;51.474;5.696;2023-06-26T07:10:28;11.95;;;3.63;;
46731;SDS011;32477;51.474;5.696;2023-06-26T07:12:54;14.15;;;3.45;;
46731;SDS011;32477;51.474;5.696;2023-06-26T07:15:20;11.27;;;3.28;;
46731;SDS011;32477;51.474;5.696;2023-06-26T07:17:45;10.70;;;3.40;;
46731;SDS011;32477;51.474;5.696;2023-06-26T07:20:11;11.02;;;3.55;;
46731;SDS011;32477;51.474;5.696;2023-06-26T07:22:40;13.55;;;3.22;;
46731;SDS011;32477;51.474;5.696;2023-06-26T07:25:06;15.73;;;3.75;;
46731;SDS011;32477;51.474;5.696;2023-06-26T07:27:38;11.05;;;3.47;;
46731;SDS011;32477;51.474;5.696;2023-06-26T07:30:05;7.88;;;2.40;;
46731;SDS011;32477;51.474;5.696;2023-06-26T07:32:34;8.60;;;2.97;;
46731;SDS011;32477;51.474;5.696;2023-06-26T07:34:59;11.68;;;3.08;;
46731;SDS011;32477;51.474;5.696;2023-06-26T07:37:25;10.40;;;3.33;;
46731;SDS011;32477;51.474;5.696;2023-06-26T07:39:51;24.00;;;6.07;;
46731;SDS011;32477;51.474;5.696;2023-06-26T07:42:17;14.32;;;3.53;;
46731;SDS011;32477;51.474;5.696;2023-06-26T07:44:42;13.70;;;3.90;;
46731;SDS011;32477;51.474;5.696;2023-06-26T07:47:08;11.05;;;3.15;;
46731;SDS011;32477;51.474;5.696;2023-06-26T07:49:35;6.15;;;2.75;;
46731;SDS011;32477;51.474;5.696;2023-06-26T07:52:00;11.50;;;3.50;;
46731;SDS011;32477;51.474;5.696;2023-06-26T07:54:26;14.20;;;3.10;;
46731;SDS011;32477;51.474;5.696;2023-06-26T07:56:53;8.93;;;3.65;;
46731;SDS011;32477;51.474;5.696;2023-06-26T07:59:19;11.13;;;3.20;;
46731;SDS011;32477;51.474;5.696;2023-06-26T08:01:47;9.68;;;3.75;;
46731;SDS011;32477;51.474;5.696;2023-06-26T08:04:13;12.45;;;3.08;;
46731;SDS011;32477;51.474;5.696;2023-06-26T08:06:38;11.70;;;3.85;;
46731;SDS011;32477;51.474;5.696;2023-06-26T08:09:07;9.38;;;3.13;;
46731;SDS011;32477;51.474;5.696;2023-06-26T08:11:36;12.23;;;5.03;;
46731;SDS011;32477;51.474;5.696;2023-06-26T08:14:01;9.48;;;2.67;;
46731;SDS011;32477;51.474;5.696;2023-06-26T08:16:27;13.20;;;3.28;;
46731;SDS011;32477;51.474;5.696;2023-06-26T08:18:52;11.05;;;2.97;;
46731;SDS011;32477;51.474;5.696;2023-06-26T08:21:18;9.55;;;3.13;;
46731;SDS011;32477;51.474;5.696;2023-06-26T08:23:44;10.55;;;3.03;;
46731;SDS011;32477;51.474;5.696;2023-06-26T08:26:09;7.68;;;2.75;;
46731;SDS011;32477;51.474;5.696;2023-06-26T08:28:35;8.25;;;3.67;;
46731;SDS011;32477;51.474;5.696;2023-06-26T08:31:00;7.75;;;2.88;;
46731;SDS011;32477;51.474;5.696;2023-06-26T08:33:26;7.97;;;3.00;;
46731;SDS011;32477;51.474;5.696;2023-06-26T08:35:52;7.32;;;2.45;;
46731;SDS011;32477;51.474;5.696;2023-06-26T08:38:17;9.02;;;2.70;;
46731;SDS011;32477;51.474;5.696;2023-06-26T08:40:46;3.95;;;2.22;;
46731;SDS011;32477;51.474;5.696;2023-06-26T08:43:12;7.15;;;2.42;;
46731;SDS011;32477;51.474;5.696;2023-06-26T08:45:37;7.18;;;2.28;;
46731;SDS011;32477;51.474;5.696;2023-06-26T08:48:03;7.10;;;2.25;;
46731;SDS011;32477;51.474;5.696;2023-06-26T08:50:33;4.40;;;1.95;;
46731;SDS011;32477;51.474;5.696;2023-06-26T08:53:04;10.35;;;1.98;;
46731;SDS011;32477;51.474;5.696;2023-06-26T08:55:29;7.78;;;1.90;;
46731;SDS011;32477;51.474;5.696;2023-06-26T08:58:00;8.07;;;1.50;;
46731;SDS011;32477;51.474;5.696;2023-06-26T09:00:26;6.00;;;1.70;;
46731;SDS011;32477;51.474;5.696;2023-06-26T09:02:52;4.35;;;1.67;;
46731;SDS011;32477;51.474;5.696;2023-06-26T09:05:19;6.28;;;1.85;;
46731;SDS011;32477;51.474;5.696;2023-06-26T09:07:44;5.45;;;1.60;;
46731;SDS011;32477;51.474;5.696;2023-06-26T09:10:10;10.65;;;1.52;;
46731;SDS011;32477;51.474;5.696;2023-06-26T09:12:36;9.85;;;1.83;;
46731;SDS011;32477;51.474;5.696;2023-06-26T09:15:02;9.25;;;1.65;;
46731;SDS011;32477;51.474;5.696;2023-06-26T09:17:30;5.30;;;1.50;;
46731;SDS011;32477;51.474;5.696;2023-06-26T09:19:58;6.30;;;1.70;;
46731;SDS011;32477;51.474;5.696;2023-06-26T09:22:23;7.32;;;1.63;;
46731;SDS011;32477;51.474;5.696;2023-06-26T09:24:49;3.25;;;1.40;;
46731;SDS011;32477;51.474;5.696;2023-06-26T09:27:16;4.43;;;1.52;;
46731;SDS011;32477;51.474;5.696;2023-06-26T09:29:45;5.32;;;1.48;;
46731;SDS011;32477;51.474;5.696;2023-06-26T09:32:12;12.07;;;1.42;;
46731;SDS011;32477;51.474;5.696;2023-06-26T09:34:40;6.45;;;1.38;;
46731;SDS011;32477;51.474;5.696;2023-06-26T09:37:06;4.18;;;1.23;;
46731;SDS011;32477;51.474;5.696;2023-06-26T09:39:33;4.50;;;1.42;;
46731;SDS011;32477;51.474;5.696;2023-06-26T09:41:58;9.65;;;1.38;;
46731;SDS011;32477;51.474;5.696;2023-06-26T09:44:24;2.30;;;1.45;;
46731;SDS011;32477;51.474;5.696;2023-06-26T09:46:50;6.50;;;1.38;;
46731;SDS011;32477;51.474;5.696;2023-06-26T09:49:15;5.88;;;1.50;;
46731;SDS011;32477;51.474;5.696;2023-06-26T09:51:41;6.45;;;1.40;;
46731;SDS011;32477;51.474;5.696;2023-06-26T09:54:08;6.05;;;1.27;;
46731;SDS011;32477;51.474;5.696;2023-06-26T09:56:37;8.18;;;1.60;;
46731;SDS011;32477;51.474;5.696;2023-06-26T09:59:03;3.90;;;1.55;;
46731;SDS011;32477;51.474;5.696;2023-06-26T10:01:39;6.20;;;1.40;;
46731;SDS011;32477;51.474;5.696;2023-06-26T10:04:06;7.95;;;1.23;;
46731;SDS011;32477;51.474;5.696;2023-06-26T10:06:33;3.60;;;1.02;;
46731;SDS011;32477;51.474;5.696;2023-06-26T10:09:01;3.00;;;1.13;;
46731;SDS011;32477;51.474;5.696;2023-06-26T10:11:37;3.65;;;1.20;;
46731;SDS011;32477;51.474;5.696;2023-06-26T10:14:07;5.53;;;1.48;;
46731;SDS011;32477;51.474;5.696;2023-06-26T10:16:36;6.57;;;1.25;;
46731;SDS011;32477;51.474;5.696;2023-06-26T10:19:05;6.40;;;1.55;;
46731;SDS011;32477;51.474;5.696;2023-06-26T10:21:33;9.80;;;1.80;;
46731;SDS011;32477;51.474;5.696;2023-06-26T10:24:00;10.57;;;1.55;;
46731;SDS011;32477;51.474;5.696;2023-06-26T10:26:29;5.97;;;1.20;;
46731;SDS011;32477;51.474;5.696;2023-06-26T10:28:57;4.38;;;1.13;;
46731;SDS011;32477;51.474;5.696;2023-06-26T10:31:24;2.28;;;0.90;;
46731;SDS011;32477;51.474;5.696;2023-06-26T10:33:51;3.08;;;1.17;;
46731;SDS011;32477;51.474;5.696;2023-06-26T10:36:19;4.20;;;0.82;;
46731;SDS011;32477;51.474;5.696;2023-06-26T10:38:52;4.72;;;1.20;;
46731;SDS011;32477;51.474;5.696;2023-06-26T10:41:20;1.75;;;0.77;;
46731;SDS011;32477;51.474;5.696;2023-06-26T10:43:51;8.90;;;1.35;;
46731;SDS011;32477;51.474;5.696;2023-06-26T10:49:17;2.55;;;1.15;;
46731;SDS011;32477;51.474;5.696;2023-06-26T10:51:48;4.60;;;1.38;;
46731;SDS011;32477;51.474;5.696;2023-06-26T10:54:15;4.03;;;1.00;;
46731;SDS011;32477;51.474;5.696;2023-06-26T10:59:11;2.55;;;0.90;;
46731;SDS011;32477;51.474;5.696;2023-06-26T11:02:06;3.97;;;1.25;;
46731;SDS011;32477;51.474;5.696;2023-06-26T11:04:40;6.00;;;1.02;;
46731;SDS011;32477;51.474;5.696;2023-06-26T11:07:20;5.07;;;0.90;;
46731;SDS011;32477;51.474;5.696;2023-06-26T11:09:59;7.47;;;1.20;;
46731;SDS011;32477;51.474;5.696;2023-06-26T11:12:35;4.82;;;1.20;;
46731;SDS011;32477;51.474;5.696;2023-06-26T11:15:02;9.93;;;1.45;;
46731;SDS011;32477;51.474;5.696;2023-06-26T11:17:38;3.35;;;1.27;;
46731;SDS011;32477;51.474;5.696;2023-06-26T11:20:08;7.88;;;0.98;;
46731;SDS011;32477;51.474;5.696;2023-06-26T11:22:36;2.60;;;1.00;;
46731;SDS011;32477;51.474;5.696;2023-06-26T11:25:03;8.82;;;0.95;;
46731;SDS011;32477;51.474;5.696;2023-06-26T11:27:39;8.35;;;1.40;;
46731;SDS011;32477;51.474;5.696;2023-06-26T11:30:06;1.23;;;0.90;;
46731;SDS011;32477;51.474;5.696;2023-06-26T11:32:33;2.97;;;0.90;;
46731;SDS011;32477;51.474;5.696;2023-06-26T11:34:59;2.78;;;0.77;;
46731;SDS011;32477;51.474;5.696;2023-06-26T11:37:25;4.53;;;1.30;;
46731;SDS011;32477;51.474;5.696;2023-06-26T11:39:51;4.30;;;1.02;;
46731;SDS011;32477;51.474;5.696;2023-06-26T11:42:20;3.47;;;1.15;;
46731;SDS011;32477;51.474;5.696;2023-06-26T11:44:46;4.95;;;1.00;;
46731;SDS011;32477;51.474;5.696;2023-06-26T11:47:21;1.80;;;1.08;;
46731;SDS011;32477;51.474;5.696;2023-06-26T11:49:48;11.60;;;1.65;;
46731;SDS011;32477;51.474;5.696;2023-06-26T11:52:15;4.53;;;1.40;;
46731;SDS011;32477;51.474;5.696;2023-06-26T11:54:44;5.90;;;1.48;;
46731;SDS011;32477;51.474;5.696;2023-06-26T11:57:14;3.35;;;1.00;;
46731;SDS011;32477;51.474;5.696;2023-06-26T11:59:40;3.58;;;1.15;;
46731;SDS011;32477;51.474;5.696;2023-06-26T12:02:09;6.25;;;1.20;;
46731;SDS011;32477;51.474;5.696;2023-06-26T12:04:38;6.38;;;1.02;;
46731;SDS011;32477;51.474;5.696;2023-06-26T12:07:06;8.70;;;1.77;;
46731;SDS011;32477;51.474;5.696;2023-06-26T12:09:41;3.72;;;1.00;;
46731;SDS011;32477;51.474;5.696;2023-06-26T12:12:11;2.35;;;0.82;;
46731;SDS011;32477;51.474;5.696;2023-06-26T12:14:39;3.20;;;1.02;;
46731;SDS011;32477;51.474;5.696;2023-06-26T12:17:11;4.20;;;1.05;;
46731;SDS011;32477;51.474;5.696;2023-06-26T12:19:39;1.25;;;0.75;;
46731;SDS011;32477;51.474;5.696;2023-06-26T12:22:08;1.58;;;0.70;;
46731;SDS011;32477;51.474;5.696;2023-06-26T12:24:36;6.85;;;1.73;;
46731;SDS011;32477;51.474;5.696;2023-06-26T12:27:06;5.55;;;1.08;;
46731;SDS011;32477;51.474;5.696;2023-06-26T12:29:38;3.78;;;1.17;;
46731;SDS011;32477;51.474;5.696;2023-06-26T12:32:08;1.90;;;0.68;;
46731;SDS011;32477;51.474;5.696;2023-06-26T12:34:35;5.57;;;1.13;;
46731;SDS011;32477;51.474;5.696;2023-06-26T12:37:03;8.23;;;1.17;;
46731;SDS011;32477;51.474;5.696;2023-06-26T12:42:23;6.03;;;1.30;;
46731;SDS011;32477;51.474;5.696;2023-06-26T12:44:50;5.57;;;1.23;;
46731;SDS011;32477;51.474;5.696;2023-06-26T12:47:17;5.38;;;1.00;;
46731;SDS011;32477;51.474;5.696;2023-06-26T12:49:52;1.63;;;0.88;;
46731;SDS011;32477;51.474;5.696;2023-06-26T12:52:18;2.72;;;1.40;;
46731;SDS011;32477;51.474;5.696;2023-06-26T12:54:45;2.63;;;1.17;;
46731;SDS011;32477;51.474;5.696;2023-06-26T12:57:12;2.60;;;1.10;;
46731;SDS011;32477;51.474;5.696;2023-06-26T12:59:41;4.78;;;1.30;;
46731;SDS011;32477;51.474;5.696;2023-06-26T13:02:07;11.07;;;1.10;;
46731;SDS011;32477;51.474;5.696;2023-06-26T13:04:33;2.65;;;1.33;;
46731;SDS011;32477;51.474;5.696;2023-06-26T13:07:00;2.53;;;1.20;;
46731;SDS011;32477;51.474;5.696;2023-06-26T13:09:26;3.42;;;1.17;;
46731;SDS011;32477;51.474;5.696;2023-06-26T13:11:58;3.90;;;1.20;;
46731;SDS011;32477;51.474;5.696;2023-06-26T13:14:24;5.05;;;1.13;;
46731;SDS011;32477;51.474;5.696;2023-06-26T13:16:49;3.58;;;1.20;;
46731;SDS011;32477;51.474;5.696;2023-06-26T13:19:15;3.95;;;1.10;;
46731;SDS011;32477;51.474;5.696;2023-06-26T13:21:41;5.15;;;1.33;;
46731;SDS011;32477;51.474;5.696;2023-06-26T13:24:07;3.63;;;1.20;;
46731;SDS011;32477;51.474;5.696;2023-06-26T13:26:32;5.10;;;0.90;;
46731;SDS011;32477;51.474;5.696;2023-06-26T13:28:58;4.63;;;1.30;;
46731;SDS011;32477;51.474;5.696;2023-06-26T13:31:24;5.60;;;1.10;;
46731;SDS011;32477;51.474;5.696;2023-06-26T13:33:49;6.38;;;1.20;;
46731;SDS011;32477;51.474;5.696;2023-06-26T13:36:16;1.83;;;0.88;;
46731;SDS011;32477;51.474;5.696;2023-06-26T13:38:41;3.15;;;1.30;;
46731;SDS011;32477;51.474;5.696;2023-06-26T13:41:07;8.93;;;2.05;;
46731;SDS011;32477;51.474;5.696;2023-06-26T13:43:33;3.38;;;0.95;;
46731;SDS011;32477;51.474;5.696;2023-06-26T13:45:58;3.30;;;1.30;;
46731;SDS011;32477;51.474;5.696;2023-06-26T13:48:25;2.97;;;1.15;;
46731;SDS011;32477;51.474;5.696;2023-06-26T13:50:50;2.85;;;1.25;;
46731;SDS011;32477;51.474;5.696;2023-06-26T13:53:17;2.63;;;1.10;;
46731;SDS011;32477;51.474;5.696;2023-06-26T13:55:42;8.30;;;1.10;;
46731;SDS011;32477;51.474;5.696;2023-06-26T13:58:08;2.60;;;1.13;;
46731;SDS011;32477;51.474;5.696;2023-06-26T14:00:35;1.85;;;0.75;;
46731;SDS011;32477;51.474;5.696;2023-06-26T14:03:02;3.70;;;1.02;;
46731;SDS011;32477;51.474;5.696;2023-06-26T14:05:29;3.15;;;1.10;;
46731;SDS011;32477;51.474;5.696;2023-06-26T14:07:55;7.70;;;0.90;;
46731;SDS011;32477;51.474;5.696;2023-06-26T14:10:21;4.50;;;1.83;;
46731;SDS011;32477;51.474;5.696;2023-06-26T14:12:48;3.35;;;1.02;;
46731;SDS011;32477;51.474;5.696;2023-06-26T14:15:14;2.42;;;0.80;;
46731;SDS011;32477;51.474;5.696;2023-06-26T14:17:40;8.55;;;1.13;;
46731;SDS011;32477;51.474;5.696;2023-06-26T14:20:06;2.92;;;1.45;;
46731;SDS011;32477;51.474;5.696;2023-06-26T14:22:35;2.75;;;1.30;;
46731;SDS011;32477;51.474;5.696;2023-06-26T14:25:01;1.88;;;0.95;;
46731;SDS011;32477;51.474;5.696;2023-06-26T14:27:28;4.70;;;1.27;;
46731;SDS011;32477;51.474;5.696;2023-06-26T14:29:53;1.80;;;1.20;;
46731;SDS011;32477;51.474;5.696;2023-06-26T14:32:19;6.93;;;1.33;;
46731;SDS011;32477;51.474;5.696;2023-06-26T14:34:44;9.73;;;0.90;;
46731;SDS011;32477;51.474;5.696;2023-06-26T14:37:10;2.95;;;0.93;;
46731;SDS011;32477;51.474;5.696;2023-06-26T14:39:36;2.70;;;1.10;;
46731;SDS011;32477;51.474;5.696;2023-06-26T14:42:03;2.97;;;1.02;;
46731;SDS011;32477;51.474;5.696;2023-06-26T14:44:30;2.28;;;1.08;;
46731;SDS011;32477;51.474;5.696;2023-06-26T14:46:55;6.43;;;1.17;;
46731;SDS011;32477;51.474;5.696;2023-06-26T14:49:21;2.53;;;1.20;;
46731;SDS011;32477;51.474;5.696;2023-06-26T14:51:47;4.05;;;0.90;;